Thursday, May 24, 2018, 12:52 PM CDT
Back to Local

KLOT, Chicago/romeoville, Lewis University Airport

Location: Lockport, IL, United States Lat: 41.608
Local Time: 12:52 PM CDT (17:52 GMT) Lon: -88.094
Time Zone: US/Central Elev: 672 ft

Show me the last for .
Show Coded

Time T Td Feel RH Dir Speed Gust Alt SLP Vis Weather Sky Remarks
2018-05-24 12:35 82 57 82 42 190° 7 - 30.16 - 10 CLR None
2018-05-24 12:15 81 57 81 43 150° 8 - 30.16 - 10 CLR None
2018-05-24 11:55 80 57 81 45 200° 9 - 30.17 - 10 CLR None
2018-05-24 11:35 80 57 80 45 170° 5 9 30.18 - 10 CLR None
2018-05-24 11:15 79 57 80 46 200° 8 - 30.18 - 10 CLR None
2018-05-24 10:55 79 57 80 47 190° 7 - 30.18 - 10 CLR None
2018-05-24 10:35 78 58 79 49 160° 12 - 30.18 - 10 CLR None
2018-05-24 10:15 77 58 79 51 190° 8 - 30.19 - 10 CLR None
2018-05-24 09:55 76 58 78 53 200° 10 - 30.19 - 10 CLR None
2018-05-24 09:35 75 59 78 56 190° 9 - 30.19 - 10 CLR None
2018-05-24 09:15 74 58 77 57 170° 8 - 30.20 - 10 CLR None
2018-05-24 08:55 73 58 77 59 170° 8 - 30.21 - 10 CLR None
2018-05-24 08:35 72 57 76 60 170° 9 - 30.21 - 10 CLR None
2018-05-24 08:15 70 58 76 65 180° 6 - 30.22 - 10 CLR None
2018-05-24 07:55 68 58 - 70 170° 7 - 30.22 - 10 CLR None
2018-05-24 07:35 66 57 - 73 170° 6 - 30.21 - 10 CLR None
2018-05-24 07:15 64 57 - 77 170° 7 - 30.21 - 10 CLR None
2018-05-24 06:55 62 57 - 81 170° 5 - 30.21 - 10 CLR 6-hr Min Temp (7am): 55.8°F
6-hr Max Temp (7am): 62.4°F
2018-05-24 06:35 61 57 - 85 160° 3 - 30.21 - 10 CLR None
2018-05-24 06:15 60 55 - 85 150° 3 - 30.21 - 10 CLR None
2018-05-24 05:55 59 55 - 85 140° 3 - 30.19 - 10 CLR None
2018-05-24 05:35 58 54 - 87 - Calm - 30.19 - 10 CLR None
2018-05-24 05:15 58 54 - 87 120° 3 - 30.18 - 10 CLR None
2018-05-24 04:55 56 54 - 90 80° 3 - 30.18 - 10 CLR None
2018-05-24 04:35 56 53 - 90 80° 3 - 30.17 - 10 CLR None
2018-05-24 04:15 59 54 - 83 - Calm - 30.17 - 10 CLR None
2018-05-24 03:55 58 54 - 84 - Calm - 30.16 - 10 CLR None
2018-05-24 03:35 58 53 - 83 120° 3 - 30.17 - 10 CLR None
2018-05-24 03:15 58 53 - 84 - Calm - 30.16 - 10 CLR None
2018-05-24 02:55 58 53 - 83 - Calm - 30.17 - 10 CLR None
2018-05-24 02:35 57 53 - 84 - Calm - 30.16 - 10 CLR None
2018-05-24 02:15 57 52 - 84 - Calm - 30.17 - 10 CLR None
2018-05-24 01:55 58 52 - 80 80° 5 - 30.17 - 10 CLR None
2018-05-24 01:35 58 52 - 80 80° 5 - 30.17 - 10 CLR None
2018-05-24 01:15 59 52 - 76 90° 5 - 30.17 - 10 CLR None
2018-05-24 00:55 58 52 - 80 80° 5 - 30.17 - 10 CLR 6-hr Min Temp (1am): 57.6°F
6-hr Max Temp (1am): 76.3°F
24-hr Min Temp (1am): 50.4°F
24-hr Max Temp (1am): 80.2°F
2018-05-24 00:35 58 52 - 81 80° 3 - 30.18 - 10 CLR None
2018-05-24 00:15 59 52 - 76 80° 5 - 30.18 - 10 CLR None
2018-05-23 23:55 60 52 - 74 80° 5 - 30.19 - 10 CLR None
2018-05-23 23:35 61 51 - 70 90° 6 - 30.19 - 10 CLR None
2018-05-23 23:10 61 51 - 70 90° 6 - 30.19 - 10 CLR None
2018-05-23 22:55 62 51 - 67 90° 6 - 30.19 - 10 CLR None
2018-05-23 22:35 63 51 - 65 80° 6 - 30.18 - 10 CLR None
2018-05-23 22:15 63 51 - 66 70° 8 - 30.18 - 10 CLR None
2018-05-23 22:00 64 51 - 60 80° 8 - 30.18 - 10 CLR None
2018-05-23 21:35 63 51 - 64 70° 7 - 30.18 - 10 CLR None
2018-05-23 21:15 66 50 - 57 80° 7 - 30.17 - 10 CLR None
2018-05-23 20:50 66 51 - 59 80° 7 - 30.17 - 10 CLR None
2018-05-23 20:35 67 51 - 56 80° 7 - 30.16 - 10 CLR None
2018-05-23 20:15 69 51 - 52 80° 7 - 30.15 - 10 CLR None
2018-05-23 19:55 71 51 76 47 80° 8 - 30.15 - 10 CLR None
2018-05-23 19:35 73 53 76 49 90° 9 - 30.14 - 10 CLR None
2018-05-23 19:15 75 51 77 43 90° 8 - 30.14 - 10 CLR None
2018-05-23 18:55 76 51 77 41 80° 8 - 30.14 - 10 CLR 6-hr Min Temp (7pm): 74.8°F
6-hr Max Temp (7pm): 80.2°F
2018-05-23 18:35 77 50 - 39 80° 6 - 30.14 - 10 CLR None
2018-05-23 18:15 78 53 78 41 90° 7 - 30.14 - 10 CLR None
2018-05-23 17:55 78 53 78 42 90° 8 - 30.14 - 10 CLR None
2018-05-23 17:35 79 54 79 42 100° 7 - 30.13 - 10 CLR None
2018-05-23 17:15 80 52 - 38 90° 5 - 30.14 - 10 CLR None
2018-05-23 16:55 80 55 80 42 70° 5 - 30.14 - 10 CLR None
2018-05-23 16:35 79 53 - 39 - Calm - 30.14 - 10 CLR None
2018-05-23 16:15 80 54 80 41 - Calm - 30.14 - 10 CLR None
2018-05-23 15:55 79 54 79 42 130° 5 - 30.16 - 10 CLR None
2018-05-23 15:35 79 55 79 44 90° 5 - 30.16 - 10 CLR None
2018-05-23 15:15 78 55 79 45 120° 3 - 30.17 - 10 CLR None
2018-05-23 14:55 78 56 79 46 100° 6 - 30.17 - 10 CLR None
2018-05-23 14:35 77 55 78 46 - Calm - 30.18 - 10 CLR None
2018-05-23 14:15 77 55 78 46 90° 3 - 30.19 - 10 CLR None
2018-05-23 13:55 76 55 78 48 290° 3 - 30.19 - 10 CLR None
2018-05-23 13:35 77 56 78 48 - Calm - 30.19 - 10 CLR None
2018-05-23 13:15 75 55 77 48 - Calm - 30.21 - 10 CLR None
2018-05-23 12:55 75 56 77 51 - Calm - 30.21 - 10 CLR 6-hr Min Temp (1pm): 53.8°F
6-hr Max Temp (1pm): 75.2°F

Support USWX by starting your Amazon purchase here.